SPCWK EPPR-EPPR
Flight info
| Callsign | SPCWK |
|---|---|
| Flight time | 0h 11m |
| Altitude | 1500 |
| Route | EPPR EPPRW EPGDX EPGD EPGDX EPPRW EPPR |
| Aircraft | C152/L-S/SY/S |
Departure
| Time | 2026-04-27 18:03 |
|---|---|
| Airport | Pruszcz Gdański Air Base (EPPR) |
Arrival
| Time | 2026-04-27 18:15 |
|---|---|
| Airport | Pruszcz Gdański Air Base (EPPR) |
| Time | Latitude | Longitude | Altitude | Speed | Heading |
|---|---|---|---|---|---|
| 2026-04-27 17:52 | 54.25306 | 18.67292 | 9 ft | 0 kts | 211° |
| 2026-04-27 17:55 | 54.25304 | 18.67290 | 9 ft | 0 kts | 211° |
| 2026-04-27 17:56 | 54.25298 | 18.67283 | 10 ft | 5 kts | 220° |
| 2026-04-27 17:57 | 54.25293 | 18.67173 | 8 ft | 12 kts | 278° |
| 2026-04-27 17:57 | 54.25313 | 18.66977 | 8 ft | 22 kts | 279° |
| 2026-04-27 17:57 | 54.25340 | 18.66699 | 8 ft | 28 kts | 281° |
| 2026-04-27 17:57 | 54.25300 | 18.66488 | 8 ft | 19 kts | 201° |
| 2026-04-27 17:58 | 54.25272 | 18.66470 | 8 ft | 0 kts | 197° |
| 2026-04-27 17:59 | 54.25270 | 18.66469 | 8 ft | 4 kts | 196° |
| 2026-04-27 17:59 | 54.25176 | 18.66445 | 7 ft | 16 kts | 143° |
| 2026-04-27 18:00 | 54.25144 | 18.66768 | 7 ft | 51 kts | 98° |
| 2026-04-27 18:00 | 54.25049 | 18.67443 | 10 ft | 53 kts | 97° |
| 2026-04-27 18:00 | 54.25006 | 18.67800 | 8 ft | 0 kts | 111° |
| 2026-04-27 18:01 | 54.24994 | 18.67778 | 8 ft | 10 kts | 274° |
| 2026-04-27 18:01 | 54.25012 | 18.67583 | 10 ft | 23 kts | 279° |
| 2026-04-27 18:01 | 54.25050 | 18.67239 | 9 ft | 36 kts | 279° |
| 2026-04-27 18:01 | 54.25115 | 18.66799 | 7 ft | 33 kts | 297° |
| 2026-04-27 18:02 | 54.25156 | 18.66622 | 6 ft | 5 kts | 162° |
| 2026-04-27 18:02 | 54.25130 | 18.66826 | 7 ft | 43 kts | 101° |
| 2026-04-27 18:02 | 54.25043 | 18.67551 | 86 ft | 71 kts | 95° |
| 2026-04-27 18:02 | 54.24912 | 18.68376 | 275 ft | 78 kts | 96° |
| 2026-04-27 18:03 | 54.24865 | 18.69322 | 410 ft | 84 kts | 85° |
| 2026-04-27 18:03 | 54.24514 | 18.70144 | 574 ft | 100 kts | 155° |
| 2026-04-27 18:03 | 54.23806 | 18.70045 | 753 ft | 92 kts | 192° |
| 2026-04-27 18:03 | 54.23247 | 18.69676 | 884 ft | 86 kts | 237° |
| 2026-04-27 18:04 | 54.23169 | 18.68713 | 906 ft | 85 kts | 279° |
| 2026-04-27 18:04 | 54.23191 | 18.67698 | 944 ft | 89 kts | 282° |
| 2026-04-27 18:04 | 54.23215 | 18.66645 | 998 ft | 88 kts | 281° |
| 2026-04-27 18:04 | 54.23247 | 18.65583 | 1010 ft | 90 kts | 284° |
| 2026-04-27 18:05 | 54.23318 | 18.64564 | 1097 ft | 85 kts | 285° |
| 2026-04-27 18:05 | 54.23340 | 18.63523 | 1068 ft | 91 kts | 280° |
| 2026-04-27 18:05 | 54.23391 | 18.62474 | 1115 ft | 85 kts | 284° |
| 2026-04-27 18:05 | 54.23436 | 18.61439 | 1108 ft | 88 kts | 285° |
| 2026-04-27 18:06 | 54.23515 | 18.60406 | 1130 ft | 88 kts | 282° |
| 2026-04-27 18:06 | 54.23600 | 18.59380 | 1123 ft | 87 kts | 290° |
| 2026-04-27 18:06 | 54.23713 | 18.58369 | 1127 ft | 87 kts | 290° |
| 2026-04-27 18:06 | 54.23820 | 18.57347 | 1145 ft | 87 kts | 288° |
| 2026-04-27 18:07 | 54.23908 | 18.56341 | 1104 ft | 91 kts | 287° |
| 2026-04-27 18:07 | 54.24025 | 18.55262 | 1032 ft | 93 kts | 289° |
| 2026-04-27 18:07 | 54.24156 | 18.54154 | 950 ft | 93 kts | 288° |
| 2026-04-27 18:07 | 54.24291 | 18.53077 | 909 ft | 90 kts | 287° |
| 2026-04-27 18:08 | 54.24419 | 18.52040 | 922 ft | 89 kts | 289° |
| 2026-04-27 18:08 | 54.24538 | 18.51012 | 954 ft | 88 kts | 287° |
| 2026-04-27 18:08 | 54.24654 | 18.49975 | 931 ft | 89 kts | 288° |
| 2026-04-27 18:08 | 54.24901 | 18.49082 | 937 ft | 81 kts | 326° |
| 2026-04-27 18:09 | 54.25417 | 18.48815 | 913 ft | 80 kts | 358° |
| 2026-04-27 18:09 | 54.25986 | 18.48771 | 890 ft | 81 kts | 2° |
| 2026-04-27 18:09 | 54.26549 | 18.48757 | 894 ft | 81 kts | 360° |
| 2026-04-27 18:09 | 54.27072 | 18.48530 | 949 ft | 79 kts | 345° |
| 2026-04-27 18:10 | 54.27605 | 18.48349 | 971 ft | 78 kts | 4° |
| 2026-04-27 18:10 | 54.28138 | 18.48427 | 990 ft | 77 kts | 7° |
| 2026-04-27 18:10 | 54.28674 | 18.48549 | 920 ft | 79 kts | 15° |
| 2026-04-27 18:10 | 54.29185 | 18.48833 | 922 ft | 77 kts | 22° |
| 2026-04-27 18:11 | 54.29681 | 18.49192 | 887 ft | 78 kts | 26° |
| 2026-04-27 18:11 | 54.30168 | 18.49573 | 897 ft | 75 kts | 25° |
| 2026-04-27 18:11 | 54.30644 | 18.49930 | 929 ft | 73 kts | 19° |
| 2026-04-27 18:11 | 54.31144 | 18.49871 | 988 ft | 73 kts | 353° |
| 2026-04-27 18:12 | 54.31648 | 18.49732 | 1002 ft | 78 kts | 355° |
| 2026-04-27 18:12 | 54.32197 | 18.49700 | 1019 ft | 80 kts | 4° |
| 2026-04-27 18:12 | 54.32739 | 18.49772 | 1047 ft | 79 kts | 7° |
| 2026-04-27 18:12 | 54.33280 | 18.49879 | 1064 ft | 77 kts | 10° |
| 2026-04-27 18:13 | 54.33811 | 18.50087 | 1025 ft | 81 kts | 14° |
| 2026-04-27 18:13 | 54.34361 | 18.50343 | 1004 ft | 81 kts | 15° |
| 2026-04-27 18:13 | 54.34895 | 18.50594 | 1033 ft | 80 kts | 16° |
| 2026-04-27 18:13 | 54.35438 | 18.50852 | 1044 ft | 80 kts | 15° |
| 2026-04-27 18:14 | 54.35939 | 18.51025 | 1044 ft | 68 kts | 3° |
| 2026-04-27 18:14 | 54.36408 | 18.50833 | 964 ft | 73 kts | 339° |
| 2026-04-27 18:14 | 54.36783 | 18.50233 | 846 ft | 72 kts | 313° |
| 2026-04-27 18:14 | 54.37027 | 18.49502 | 626 ft | 64 kts | 304° |
| 2026-04-27 18:15 | 54.37192 | 18.48879 | 487 ft | 49 kts | 292° |
| 2026-04-27 18:15 | 54.37327 | 18.48352 | 488 ft | 66 kts | 301° |
| 2026-04-27 18:15 | 54.37525 | 18.47531 | 633 ft | 77 kts | 298° |
| 2026-04-27 18:15 | 54.37752 | 18.46662 | 816 ft | 82 kts | 304° |
| 2026-04-27 18:16 | 54.37848 | 18.45749 | 1048 ft | 85 kts | 244° |
| 2026-04-27 18:16 | 54.37308 | 18.45234 | 1037 ft | 95 kts | 202° |
| 2026-04-27 18:16 | 54.36896 | 18.45124 | 1099 ft | 90 kts | 159° |
| 2026-04-27 18:16 | 54.36447 | 18.46241 | 1094 ft | 86 kts | 102° |
| 2026-04-27 18:17 | 54.36278 | 18.47213 | 1154 ft | 83 kts | 100° |
| 2026-04-27 18:17 | 54.36154 | 18.47858 | 1147 ft | 88 kts | 103° |
| 2026-04-27 18:17 | 54.35974 | 18.49170 | 1211 ft | 79 kts | 59° |
| 2026-04-27 18:17 | 54.36349 | 18.49739 | 1101 ft | 78 kts | 28° |
| 2026-04-27 18:18 | 54.36639 | 18.50034 | 997 ft | 67 kts | 8° |
| 2026-04-27 18:18 | 54.37005 | 18.49549 | 726 ft | 73 kts | 304° |
| 2026-04-27 18:18 | 54.37195 | 18.48874 | 500 ft | 52 kts | 304° |
| 2026-04-27 18:18 | 54.37327 | 18.48378 | 480 ft | 47 kts | 296° |
| 2026-04-27 18:19 | 54.37515 | 18.47605 | 479 ft | 87 kts | 299° |
| 2026-04-27 18:19 | 54.37769 | 18.46572 | 477 ft | 98 kts | 297° |
| 2026-04-27 18:19 | 54.38025 | 18.45531 | 666 ft | 77 kts | 298° |
| 2026-04-27 18:19 | 54.38192 | 18.44740 | 947 ft | 74 kts | 295° |
| 2026-04-27 18:20 | 54.38197 | 18.43817 | 1073 ft | 87 kts | 238° |
| 2026-04-27 18:20 | 54.37579 | 18.43619 | 1086 ft | 104 kts | 165° |
| 2026-04-27 18:20 | 54.36869 | 18.43964 | 1170 ft | 106 kts | 159° |
| 2026-04-27 18:20 | 54.36183 | 18.44345 | 1173 ft | 100 kts | 160° |
| 2026-04-27 18:21 | 54.35525 | 18.44686 | 1160 ft | 98 kts | 160° |
| 2026-04-27 18:21 | 54.34874 | 18.45008 | 1123 ft | 97 kts | 161° |
| 2026-04-27 18:21 | 54.34216 | 18.45311 | 1070 ft | 98 kts | 161° |
| 2026-04-27 18:21 | 54.33578 | 18.45625 | 1054 ft | 94 kts | 156° |
| 2026-04-27 18:22 | 54.32946 | 18.45949 | 1016 ft | 94 kts | 158° |
| 2026-04-27 18:22 | 54.32318 | 18.46249 | 981 ft | 94 kts | 161° |
| 2026-04-27 18:22 | 54.31705 | 18.46559 | 929 ft | 91 kts | 157° |
| 2026-04-27 18:22 | 54.31118 | 18.46910 | 890 ft | 89 kts | 156° |
| 2026-04-27 18:23 | 54.30557 | 18.47268 | 908 ft | 80 kts | 153° |
| 2026-04-27 18:23 | 54.30004 | 18.47629 | 823 ft | 87 kts | 158° |
| 2026-04-27 18:23 | 54.29435 | 18.47869 | 856 ft | 82 kts | 164° |
| 2026-04-27 18:23 | 54.28854 | 18.48002 | 816 ft | 86 kts | 168° |
| 2026-04-27 18:24 | 54.28263 | 18.48193 | 834 ft | 85 kts | 164° |
| 2026-04-27 18:24 | 54.27684 | 18.48458 | 851 ft | 86 kts | 167° |
| 2026-04-27 18:24 | 54.26961 | 18.48611 | 925 ft | 88 kts | 166° |
| 2026-04-27 18:24 | 54.26359 | 18.48824 | 1028 ft | 85 kts | 155° |
| 2026-04-27 18:25 | 54.26011 | 18.49601 | 1021 ft | 87 kts | 107° |
| 2026-04-27 18:25 | 54.25850 | 18.50582 | 1061 ft | 84 kts | 84° |
| 2026-04-27 18:25 | 54.25859 | 18.51586 | 1069 ft | 84 kts | 83° |
| 2026-04-27 18:25 | 54.25845 | 18.52603 | 1081 ft | 83 kts | 92° |
| 2026-04-27 18:26 | 54.25808 | 18.53577 | 1109 ft | 84 kts | 83° |
| 2026-04-27 18:26 | 54.25810 | 18.54587 | 1116 ft | 84 kts | 82° |
| 2026-04-27 18:26 | 54.25883 | 18.55553 | 1152 ft | 81 kts | 70° |
| 2026-04-27 18:26 | 54.25950 | 18.56522 | 1164 ft | 85 kts | 81° |
| 2026-04-27 18:27 | 54.25937 | 18.57555 | 1207 ft | 86 kts | 90° |
| 2026-04-27 18:27 | 54.25847 | 18.58582 | 1207 ft | 88 kts | 88° |
| 2026-04-27 18:27 | 54.25805 | 18.59657 | 1121 ft | 95 kts | 86° |
| 2026-04-27 18:27 | 54.25765 | 18.60785 | 1035 ft | 96 kts | 90° |
| 2026-04-27 18:28 | 54.25655 | 18.61911 | 956 ft | 96 kts | 90° |
| 2026-04-27 18:28 | 54.25544 | 18.63035 | 811 ft | 92 kts | 96° |
| 2026-04-27 18:28 | 54.25415 | 18.63998 | 637 ft | 78 kts | 95° |
| 2026-04-27 18:28 | 54.25318 | 18.64859 | 455 ft | 72 kts | 94° |
| 2026-04-27 18:29 | 54.25228 | 18.65694 | 202 ft | 73 kts | 97° |
| 2026-04-27 18:29 | 54.25144 | 18.66496 | 10 ft | 54 kts | 93° |
| 2026-04-27 18:29 | 54.25104 | 18.66960 | 5 ft | 35 kts | 95° |
| 2026-04-27 18:29 | 54.25117 | 18.67337 | 7 ft | 27 kts | 49° |
| 2026-04-27 18:30 | 54.25279 | 18.67346 | 5 ft | 17 kts | 326° |
| 2026-04-27 18:30 | 54.25274 | 18.67335 | 5 ft | 13 kts | 285° |
| 2026-04-27 18:30 | 54.25299 | 18.67266 | 5 ft | 6 kts | 84° |
| 2026-04-27 18:30 | 54.25298 | 18.67289 | 5 ft | 0 kts | 100° |